sensor_id;sensor_type;location;lat;lon;timestamp;P1;durP1;ratioP1;P2;durP2;ratioP2
40555;SDS011;26250;45.422;11.100;2022-11-15T08:33:53;35.90;;;28.27;;
40555;SDS011;26250;45.422;11.100;2022-11-15T08:36:40;41.88;;;31.50;;
40555;SDS011;26250;45.422;11.100;2022-11-15T08:39:29;31.85;;;28.55;;
40555;SDS011;26250;45.422;11.100;2022-11-15T08:42:15;36.85;;;29.92;;
40555;SDS011;26250;45.422;11.100;2022-11-15T08:45:04;35.65;;;30.40;;
40555;SDS011;26250;45.422;11.100;2022-11-15T08:47:50;41.53;;;31.05;;
40555;SDS011;26250;45.422;11.100;2022-11-15T08:50:38;38.15;;;29.30;;
40555;SDS011;26250;45.422;11.100;2022-11-15T08:53:23;33.67;;;27.42;;
40555;SDS011;26250;45.422;11.100;2022-11-15T08:56:13;34.13;;;29.15;;
40555;SDS011;26250;45.422;11.100;2022-11-15T08:58:59;34.25;;;30.17;;
40555;SDS011;26250;45.422;11.100;2022-11-15T09:01:45;32.63;;;28.88;;
40555;SDS011;26250;45.422;11.100;2022-11-15T09:04:31;36.15;;;31.75;;
40555;SDS011;26250;45.422;11.100;2022-11-15T09:07:20;45.97;;;31.10;;
40555;SDS011;26250;45.422;11.100;2022-11-15T09:10:05;39.03;;;30.85;;
40555;SDS011;26250;45.422;11.100;2022-11-15T09:12:56;37.25;;;31.35;;
40555;SDS011;26250;45.422;11.100;2022-11-15T09:15:42;39.20;;;30.55;;
40555;SDS011;26250;45.422;11.100;2022-11-15T09:18:28;41.47;;;31.25;;
40555;SDS011;26250;45.422;11.100;2022-11-15T09:21:14;38.60;;;31.77;;
40555;SDS011;26250;45.422;11.100;2022-11-15T09:24:02;41.75;;;31.05;;
40555;SDS011;26250;45.422;11.100;2022-11-15T09:26:49;42.28;;;32.35;;
40555;SDS011;26250;45.422;11.100;2022-11-15T09:29:36;45.17;;;31.13;;
40555;SDS011;26250;45.422;11.100;2022-11-15T09:32:21;62.33;;;36.35;;
40555;SDS011;26250;45.422;11.100;2022-11-15T09:35:08;36.45;;;30.60;;
40555;SDS011;26250;45.422;11.100;2022-11-15T09:37:54;42.60;;;34.38;;
40555;SDS011;26250;45.422;11.100;2022-11-15T09:40:41;48.05;;;34.83;;
40555;SDS011;26250;45.422;11.100;2022-11-15T09:46:57;39.65;;;34.72;;
40555;SDS011;26250;45.422;11.100;2022-11-15T09:49:53;43.13;;;35.28;;
40555;SDS011;26250;45.422;11.100;2022-11-15T09:52:30;57.53;;;38.92;;
40555;SDS011;26250;45.422;11.100;2022-11-15T09:54:59;41.63;;;34.25;;
40555;SDS011;26250;45.422;11.100;2022-11-15T09:57:37;39.42;;;32.17;;
40555;SDS011;26250;45.422;11.100;2022-11-15T10:00:30;40.88;;;31.00;;
40555;SDS011;26250;45.422;11.100;2022-11-15T10:03:15;34.47;;;29.65;;
40555;SDS011;26250;45.422;11.100;2022-11-15T10:05:47;36.17;;;29.77;;
40555;SDS011;26250;45.422;11.100;2022-11-15T10:08:21;31.25;;;28.23;;
40555;SDS011;26250;45.422;11.100;2022-11-15T10:10:57;37.63;;;29.98;;
40555;SDS011;26250;45.422;11.100;2022-11-15T10:13:47;35.55;;;28.05;;
40555;SDS011;26250;45.422;11.100;2022-11-15T10:25:16;37.58;;;31.83;;
40555;SDS011;26250;45.422;11.100;2022-11-15T10:27:44;41.00;;;28.93;;
40555;SDS011;26250;45.422;11.100;2022-11-15T10:41:17;34.78;;;30.17;;
40555;SDS011;26250;45.422;11.100;2022-11-15T10:44:12;34.13;;;30.17;;
40555;SDS011;26250;45.422;11.100;2022-11-15T10:47:03;39.65;;;31.58;;
40555;SDS011;26250;45.422;11.100;2022-11-15T10:49:33;47.53;;;36.58;;
40555;SDS011;26250;45.422;11.100;2022-11-15T10:52:19;42.63;;;35.83;;
40555;SDS011;26250;45.422;11.100;2022-11-15T10:54:51;45.40;;;36.13;;
40555;SDS011;26250;45.422;11.100;2022-11-15T10:57:30;51.65;;;38.67;;
40555;SDS011;26250;45.422;11.100;2022-11-15T11:02:49;43.17;;;36.65;;
40555;SDS011;26250;45.422;11.100;2022-11-15T11:08:29;45.50;;;37.13;;
40555;SDS011;26250;45.422;11.100;2022-11-15T11:11:00;45.17;;;37.90;;
40555;SDS011;26250;45.422;11.100;2022-11-15T11:18:58;47.30;;;38.03;;
40555;SDS011;26250;45.422;11.100;2022-11-15T11:24:55;40.53;;;33.78;;
40555;SDS011;26250;45.422;11.100;2022-11-15T11:30:29;39.22;;;32.85;;
40555;SDS011;26250;45.422;11.100;2022-11-15T11:33:22;38.58;;;33.15;;
40555;SDS011;26250;45.422;11.100;2022-11-15T11:38:49;50.53;;;37.83;;
40555;SDS011;26250;45.422;11.100;2022-11-15T11:46:51;43.55;;;31.65;;
40555;SDS011;26250;45.422;11.100;2022-11-15T11:49:28;44.53;;;34.65;;
40555;SDS011;26250;45.422;11.100;2022-11-15T11:55:39;42.10;;;33.83;;
40555;SDS011;26250;45.422;11.100;2022-11-15T11:58:23;39.95;;;33.15;;
40555;SDS011;26250;45.422;11.100;2022-11-15T12:06:45;30.30;;;25.90;;
40555;SDS011;26250;45.422;11.100;2022-11-15T12:12:18;32.40;;;25.38;;
40555;SDS011;26250;45.422;11.100;2022-11-15T12:22:44;25.92;;;22.77;;
40555;SDS011;26250;45.422;11.100;2022-11-15T12:30:56;32.38;;;21.75;;
40555;SDS011;26250;45.422;11.100;2022-11-15T12:33:47;40.42;;;24.17;;
40555;SDS011;26250;45.422;11.100;2022-11-15T12:38:58;34.58;;;24.50;;
40555;SDS011;26250;45.422;11.100;2022-11-15T12:41:30;27.30;;;24.48;;
40555;SDS011;26250;45.422;11.100;2022-11-15T12:44:11;34.50;;;26.42;;
40555;SDS011;26250;45.422;11.100;2022-11-15T13:02:51;33.60;;;24.48;;
40555;SDS011;26250;45.422;11.100;2022-11-15T13:08:35;28.13;;;25.35;;
40555;SDS011;26250;45.422;11.100;2022-11-15T13:11:48;28.23;;;23.60;;
40555;SDS011;26250;45.422;11.100;2022-11-15T19:00:36;42.38;;;37.08;;
40555;SDS011;26250;45.422;11.100;2022-11-15T19:03:03;52.65;;;41.25;;
40555;SDS011;26250;45.422;11.100;2022-11-15T19:05:30;45.08;;;39.67;;
40555;SDS011;26250;45.422;11.100;2022-11-15T19:07:56;57.75;;;39.83;;
40555;SDS011;26250;45.422;11.100;2022-11-15T19:10:24;44.67;;;40.10;;
40555;SDS011;26250;45.422;11.100;2022-11-15T19:12:51;44.28;;;38.83;;
40555;SDS011;26250;45.422;11.100;2022-11-15T19:15:17;49.97;;;41.33;;
40555;SDS011;26250;45.422;11.100;2022-11-15T19:17:44;42.50;;;37.72;;
40555;SDS011;26250;45.422;11.100;2022-11-15T19:20:11;61.38;;;39.47;;
40555;SDS011;26250;45.422;11.100;2022-11-15T19:22:40;44.78;;;37.95;;
40555;SDS011;26250;45.422;11.100;2022-11-15T19:25:07;43.53;;;39.15;;
40555;SDS011;26250;45.422;11.100;2022-11-15T19:27:36;42.72;;;38.33;;
40555;SDS011;26250;45.422;11.100;2022-11-15T19:30:03;42.85;;;37.95;;
40555;SDS011;26250;45.422;11.100;2022-11-15T19:32:30;43.47;;;37.65;;
40555;SDS011;26250;45.422;11.100;2022-11-15T19:34:57;50.08;;;38.50;;
40555;SDS011;26250;45.422;11.100;2022-11-15T19:37:24;41.60;;;36.97;;
40555;SDS011;26250;45.422;11.100;2022-11-15T19:39:51;47.30;;;38.08;;
40555;SDS011;26250;45.422;11.100;2022-11-15T19:42:18;46.28;;;38.45;;
40555;SDS011;26250;45.422;11.100;2022-11-15T19:44:45;44.97;;;37.85;;
40555;SDS011;26250;45.422;11.100;2022-11-15T19:47:12;43.80;;;37.17;;
40555;SDS011;26250;45.422;11.100;2022-11-15T19:49:41;39.95;;;35.75;;
40555;SDS011;26250;45.422;11.100;2022-11-15T19:52:08;46.40;;;38.65;;
40555;SDS011;26250;45.422;11.100;2022-11-15T19:54:35;45.78;;;38.10;;
40555;SDS011;26250;45.422;11.100;2022-11-15T19:57:02;42.53;;;37.92;;
40555;SDS011;26250;45.422;11.100;2022-11-15T19:59:29;43.30;;;38.15;;
40555;SDS011;26250;45.422;11.100;2022-11-15T20:01:56;42.35;;;37.92;;
40555;SDS011;26250;45.422;11.100;2022-11-15T20:04:23;46.92;;;37.33;;
40555;SDS011;26250;45.422;11.100;2022-11-15T20:06:49;53.15;;;38.95;;
40555;SDS011;26250;45.422;11.100;2022-11-15T20:09:16;47.70;;;38.30;;
40555;SDS011;26250;45.422;11.100;2022-11-15T20:11:43;42.30;;;37.70;;
40555;SDS011;26250;45.422;11.100;2022-11-15T20:14:10;45.33;;;38.92;;
40555;SDS011;26250;45.422;11.100;2022-11-15T20:16:38;48.00;;;37.60;;
40555;SDS011;26250;45.422;11.100;2022-11-15T20:19:05;42.30;;;37.55;;
40555;SDS011;26250;45.422;11.100;2022-11-15T20:21:34;44.35;;;39.63;;
40555;SDS011;26250;45.422;11.100;2022-11-15T20:24:01;44.88;;;39.42;;
40555;SDS011;26250;45.422;11.100;2022-11-15T20:26:28;50.33;;;39.85;;
40555;SDS011;26250;45.422;11.100;2022-11-15T20:28:58;50.50;;;41.22;;
40555;SDS011;26250;45.422;11.100;2022-11-15T20:31:29;54.05;;;41.65;;
40555;SDS011;26250;45.422;11.100;2022-11-15T20:33:57;49.20;;;40.65;;
40555;SDS011;26250;45.422;11.100;2022-11-15T20:36:24;50.50;;;40.72;;
40555;SDS011;26250;45.422;11.100;2022-11-15T20:38:55;46.05;;;40.78;;
40555;SDS011;26250;45.422;11.100;2022-11-15T20:41:24;54.45;;;39.70;;
40555;SDS011;26250;45.422;11.100;2022-11-15T20:43:53;51.67;;;40.08;;
40555;SDS011;26250;45.422;11.100;2022-11-15T20:46:21;47.35;;;39.22;;
40555;SDS011;26250;45.422;11.100;2022-11-15T20:48:49;52.55;;;41.63;;
40555;SDS011;26250;45.422;11.100;2022-11-15T20:51:17;51.00;;;42.13;;
40555;SDS011;26250;45.422;11.100;2022-11-15T20:53:46;44.97;;;37.55;;
40555;SDS011;26250;45.422;11.100;2022-11-15T20:56:19;48.80;;;39.13;;
40555;SDS011;26250;45.422;11.100;2022-11-15T20:58:48;43.80;;;39.10;;
40555;SDS011;26250;45.422;11.100;2022-11-15T21:01:17;48.72;;;39.45;;
40555;SDS011;26250;45.422;11.100;2022-11-15T21:03:51;48.83;;;39.83;;
40555;SDS011;26250;45.422;11.100;2022-11-15T21:06:22;44.35;;;39.45;;
40555;SDS011;26250;45.422;11.100;2022-11-15T21:08:52;46.45;;;41.40;;
40555;SDS011;26250;45.422;11.100;2022-11-15T21:11:40;52.42;;;42.38;;
40555;SDS011;26250;45.422;11.100;2022-11-15T21:14:31;61.20;;;39.88;;
40555;SDS011;26250;45.422;11.100;2022-11-15T21:16:59;45.47;;;40.72;;
40555;SDS011;26250;45.422;11.100;2022-11-15T21:19:28;50.13;;;41.40;;
40555;SDS011;26250;45.422;11.100;2022-11-15T21:22:02;50.30;;;42.42;;
40555;SDS011;26250;45.422;11.100;2022-11-15T21:24:30;51.08;;;40.75;;
40555;SDS011;26250;45.422;11.100;2022-11-15T21:26:58;47.92;;;41.45;;
40555;SDS011;26250;45.422;11.100;2022-11-15T21:29:25;54.53;;;41.83;;
40555;SDS011;26250;45.422;11.100;2022-11-15T21:31:53;45.28;;;39.50;;
40555;SDS011;26250;45.422;11.100;2022-11-15T21:34:20;44.55;;;39.95;;
40555;SDS011;26250;45.422;11.100;2022-11-15T21:36:47;43.45;;;37.90;;
40555;SDS011;26250;45.422;11.100;2022-11-15T21:39:14;45.65;;;36.70;;
40555;SDS011;26250;45.422;11.100;2022-11-15T21:41:42;57.75;;;37.03;;
40555;SDS011;26250;45.422;11.100;2022-11-15T21:44:11;42.75;;;36.40;;
40555;SDS011;26250;45.422;11.100;2022-11-15T21:46:38;42.05;;;34.83;;
40555;SDS011;26250;45.422;11.100;2022-11-15T21:49:05;43.80;;;37.10;;
40555;SDS011;26250;45.422;11.100;2022-11-15T21:51:32;39.53;;;35.55;;
40555;SDS011;26250;45.422;11.100;2022-11-15T21:53:59;44.78;;;35.70;;
40555;SDS011;26250;45.422;11.100;2022-11-15T21:56:27;40.65;;;35.13;;
40555;SDS011;26250;45.422;11.100;2022-11-15T21:58:54;47.92;;;36.20;;
40555;SDS011;26250;45.422;11.100;2022-11-15T22:01:22;43.10;;;38.05;;
40555;SDS011;26250;45.422;11.100;2022-11-15T22:04:08;52.83;;;38.42;;
